Time;durP1;ratioP1;P1;durP2;ratioP2;P2;SDS_P1;SDS_P2;PMS_P1;PMS_P2;Temp;Humidity;BMP_temperature;BMP_pressure;BME280_temperature;BME280_humidity;BME280_pressure;Samples;Min_cycle;Max_cycle;Signal;HPM_P1;HPM_P2
2023/06/26 00:01:29;;;;;;;17.67;16.30;;;23.10;98.90;;;;;;5010281;28;20035;-74
2023/06/26 00:03:55;;;;;;;;;;;23.20;98.80;;;;;;5011035;28;20034;-75
2023/06/26 00:06:24;;;;;;;15.80;13.85;;;23.00;99.10;;;;;;5010685;28;19929;-74
2023/06/26 00:08:50;;;;;;;16.40;14.40;;;22.90;99.20;;;;;;4995414;28;20065;-74
2023/06/26 00:11:16;;;;;;;17.67;16.08;;;22.90;99.30;;;;;;4995537;28;20494;-74
2023/06/26 00:13:43;;;;;;;16.67;15.02;;;22.80;99.40;;;;;;5010711;28;20427;-74
2023/06/26 00:16:09;;;;;;;18.70;16.15;;;22.90;99.20;;;;;;5003966;28;20042;-74
2023/06/26 00:18:35;;;;;;;17.73;16.05;;;23.00;99.10;;;;;;5030210;28;20029;-74
2023/06/26 00:21:01;;;;;;;17.15;15.77;;;22.90;99.20;;;;;;5014795;28;20494;-74
2023/06/26 00:23:27;;;;;;;16.95;15.45;;;22.90;99.20;;;;;;5014696;28;20026;-74
2023/06/26 00:25:53;;;;;;;15.73;14.35;;;22.80;99.30;;;;;;5013372;28;20050;-75
2023/06/26 00:28:19;;;;;;;15.73;14.45;;;22.70;99.50;;;;;;5015162;28;20379;-73
2023/06/26 00:30:45;;;;;;;16.92;15.32;;;22.70;99.50;;;;;;5014197;28;20057;-74
2023/06/26 00:33:11;;;;;;;16.45;15.25;;;22.70;99.30;;;;;;5014712;28;20034;-74
2023/06/26 00:35:38;;;;;;;17.02;15.32;;;22.70;98.10;;;;;;5010214;28;20030;-74
2023/06/26 00:38:04;;;;;;;15.80;14.48;;;22.60;98.20;;;;;;4975451;28;20125;-74
2023/06/26 00:40:30;;;;;;;15.15;13.90;;;22.50;98.30;;;;;;5009149;28;20495;-74
2023/06/26 00:42:56;;;;;;;15.40;13.90;;;22.30;98.60;;;;;;5014653;28;20046;-74
2023/06/26 00:45:22;;;;;;;14.55;13.45;;;22.20;98.80;;;;;;5013519;28;20034;-74
2023/06/26 00:47:48;;;;;;;14.18;13.00;;;22.20;98.70;;;;;;5008638;28;20037;-74
2023/06/26 00:50:15;;;;;;;13.63;12.43;;;22.20;98.90;;;;;;5010140;28;20376;-73
2023/06/26 00:52:42;;;;;;;13.70;12.50;;;22.10;99.00;;;;;;5014349;28;20037;-74
2023/06/26 00:55:08;;;;;;;13.23;12.05;;;22.00;99.40;;;;;;5014395;28;20459;-75
2023/06/26 00:57:34;;;;;;;13.38;12.25;;;22.00;99.30;;;;;;5029694;28;20042;-74
2023/06/26 01:00:01;;;;;;;12.60;11.48;;;22.00;99.40;;;;;;5012945;28;20483;-74
2023/06/26 01:02:33;;;;;;;13.57;12.02;;;22.00;99.50;;;;;;5028755;28;20038;-75
2023/06/26 01:05:00;;;;;;;14.35;11.27;;;22.10;99.40;;;;;;5014235;28;20022;-74
2023/06/26 01:07:26;;;;;;;13.00;11.43;;;22.10;99.50;;;;;;5028719;28;20022;-74
2023/06/26 01:09:52;;;;;;;13.13;11.43;;;22.10;99.50;;;;;;5029407;28;20037;-74
2023/06/26 01:12:18;;;;;;;13.75;11.45;;;22.10;99.70;;;;;;5029009;28;20038;-73
2023/06/26 01:14:44;;;;;;;13.95;11.40;;;21.90;99.90;;;;;;5029342;28;20038;-74
2023/06/26 01:17:14;;;;;;;14.77;13.35;;;21.90;99.90;;;;;;5028429;28;20026;-74
2023/06/26 01:19:40;;;;;;;12.90;11.67;;;21.90;99.90;;;;;;5012784;28;20395;-74
2023/06/26 01:22:31;;;;;;;12.88;11.68;;;22.00;99.90;;;;;;5028706;28;20037;-74
2023/06/26 01:25:00;;;;;;;;;;;22.10;99.90;;;;;;5014440;28;20387;-74
2023/06/26 01:27:26;;;;;;;11.65;10.45;;;22.20;99.90;;;;;;5013710;28;19912;-74
2023/06/26 01:29:52;;;;;;;14.35;11.75;;;22.10;99.90;;;;;;5028940;28;20471;-74
2023/06/26 01:32:19;;;;;;;13.50;11.75;;;22.10;99.90;;;;;;5028303;28;20046;-74
2023/06/26 01:34:45;;;;;;;14.68;13.35;;;22.10;99.90;;;;;;5028706;28;20030;-74
2023/06/26 01:37:11;;;;;;;16.25;14.88;;;22.10;99.90;;;;;;4998646;28;20030;-74
2023/06/26 01:39:37;;;;;;;15.82;14.32;;;22.10;99.90;;;;;;4993187;28;20030;-74
2023/06/26 01:42:03;;;;;;;16.42;14.75;;;22.10;99.90;;;;;;5012048;28;20038;-74
2023/06/26 01:44:30;;;;;;;16.40;14.75;;;22.00;99.90;;;;;;5028877;28;20025;-74
2023/06/26 01:47:03;;;;;;;16.23;14.50;;;22.10;99.90;;;;;;5027471;28;20419;-73
2023/06/26 01:49:37;;;;;;;15.05;13.40;;;22.00;99.90;;;;;;5008474;28;20057;-74
2023/06/26 01:52:06;;;;;;;14.48;13.43;;;22.00;99.90;;;;;;5007836;28;20038;-74
2023/06/26 01:54:36;;;;;;;15.88;13.63;;;22.00;99.90;;;;;;5012413;28;20045;-74
2023/06/26 01:57:02;;;;;;;15.20;13.85;;;21.90;99.90;;;;;;5027240;28;20029;-74
2023/06/26 01:59:28;;;;;;;14.85;13.30;;;21.90;99.90;;;;;;5028004;28;20467;-74
2023/06/26 02:01:54;;;;;;;16.00;13.38;;;21.70;99.90;;;;;;5009914;28;20390;-75
2023/06/26 02:04:20;;;;;;;14.00;12.98;;;21.70;99.90;;;;;;4983862;28;20030;-74
2023/06/26 02:06:46;;;;;;;13.98;12.63;;;21.80;99.90;;;;;;4992826;28;20046;-74
2023/06/26 02:09:13;;;;;;;14.65;13.35;;;21.90;99.90;;;;;;5006946;28;20041;-74
2023/06/26 02:11:39;;;;;;;14.95;13.45;;;21.90;99.90;;;;;;5018805;28;20054;-73
2023/06/26 02:14:05;;;;;;;15.43;14.02;;;21.90;99.90;;;;;;5001035;28;20026;-74
2023/06/26 02:16:31;;;;;;;15.18;13.88;;;22.00;99.90;;;;;;4991253;28;20049;-74
2023/06/26 02:18:57;;;;;;;13.80;12.65;;;21.80;99.90;;;;;;4991683;28;20038;-74
2023/06/26 02:21:23;;;;;;;13.20;11.90;;;21.80;99.90;;;;;;5006100;28;20030;-74
2023/06/26 02:23:49;;;;;;;14.15;11.80;;;21.60;99.90;;;;;;5006929;28;20634;-74
2023/06/26 02:26:15;;;;;;;13.52;11.93;;;21.50;99.90;;;;;;4990436;28;20054;-73
2023/06/26 02:28:41;;;;;;;13.50;11.90;;;21.50;99.90;;;;;;4991719;28;20030;-74
2023/06/26 02:31:08;;;;;;;12.65;11.43;;;21.40;99.90;;;;;;4999680;28;20392;-74
2023/06/26 02:33:34;;;;;;;12.75;11.60;;;21.40;99.90;;;;;;5010897;28;20030;-74
2023/06/26 02:36:00;;;;;;;12.43;11.40;;;21.40;99.90;;;;;;5004598;28;20364;-73
2023/06/26 02:38:26;;;;;;;12.63;11.35;;;21.40;99.90;;;;;;4992999;28;20027;-74
2023/06/26 02:40:52;;;;;;;12.70;11.50;;;21.40;99.90;;;;;;5011125;28;20052;-74
2023/06/26 02:43:18;;;;;;;12.25;10.98;;;21.30;99.90;;;;;;5012688;28;20026;-73
2023/06/26 02:45:44;;;;;;;13.38;11.30;;;21.10;99.90;;;;;;5011710;28;20400;-74
2023/06/26 02:48:10;;;;;;;11.65;10.50;;;21.00;99.90;;;;;;5003247;28;20033;-74
2023/06/26 02:50:36;;;;;;;12.02;10.95;;;20.90;99.90;;;;;;4996264;28;20384;-74
2023/06/26 02:53:02;;;;;;;12.15;10.85;;;20.90;99.90;;;;;;5012488;28;20042;-73
2023/06/26 02:55:28;;;;;;;13.10;11.65;;;20.90;99.90;;;;;;5027589;28;20038;-74
2023/06/26 02:57:54;;;;;;;12.48;11.27;;;21.00;99.90;;;;;;5012236;28;20037;-74
2023/06/26 03:00:21;;;;;;;12.68;11.55;;;20.90;99.90;;;;;;5011544;28;20022;-73
2023/06/26 03:02:47;;;;;;;12.77;11.25;;;20.90;99.90;;;;;;5012120;28;20033;-74
2023/06/26 03:05:13;;;;;;;15.10;11.27;;;20.90;99.90;;;;;;5027259;28;20475;-74
2023/06/26 03:07:39;;;;;;;12.25;11.07;;;20.80;99.90;;;;;;5013114;28;20021;-73
2023/06/26 03:10:06;;;;;;;12.68;11.50;;;20.90;99.90;;;;;;5016417;28;20056;-74
2023/06/26 03:12:32;;;;;;;14.35;13.15;;;21.00;99.90;;;;;;5031056;28;20053;-74
2023/06/26 03:14:58;;;;;;;13.63;12.25;;;21.00;99.90;;;;;;5016493;28;20033;-73
2023/06/26 03:17:24;;;;;;;14.48;13.15;;;21.20;99.90;;;;;;5030399;28;20530;-74
2023/06/26 03:19:50;;;;;;;15.93;13.77;;;21.20;99.90;;;;;;5031339;28;20026;-73
2023/06/26 03:22:16;;;;;;;12.65;11.35;;;21.30;99.90;;;;;;5015823;28;20034;-73
2023/06/26 03:24:45;;;;;;;15.48;14.07;;;21.30;99.90;;;;;;5031465;28;20030;-73
2023/06/26 03:27:11;;;;;;;27.88;25.45;;;21.40;99.90;;;;;;5016280;28;20042;-74
2023/06/26 03:29:37;;;;;;;29.80;27.73;;;21.30;99.90;;;;;;5031094;28;20467;-73
2023/06/26 03:32:04;;;;;;;26.33;24.23;;;21.20;99.90;;;;;;5030200;28;20057;-73
2023/06/26 03:34:30;;;;;;;23.73;21.88;;;21.10;99.90;;;;;;5014456;28;20394;-73
2023/06/26 03:36:56;;;;;;;22.30;20.52;;;21.10;99.90;;;;;;4989864;28;20039;-73
2023/06/26 03:39:22;;;;;;;22.40;20.58;;;21.10;99.90;;;;;;4992489;28;20048;-74
2023/06/26 03:41:48;;;;;;;20.02;18.17;;;21.10;99.90;;;;;;5014431;28;20042;-73
2023/06/26 03:44:15;;;;;;;17.75;16.17;;;20.90;99.90;;;;;;5015710;28;20064;-74
2023/06/26 03:46:41;;;;;;;16.27;14.65;;;20.90;99.90;;;;;;5014819;28;20038;-73
2023/06/26 03:49:07;;;;;;;19.50;17.80;;;21.00;99.90;;;;;;5013935;28;20518;-73
2023/06/26 03:51:33;;;;;;;21.27;19.15;;;21.10;99.90;;;;;;4996155;28;20030;-73
2023/06/26 03:53:59;;;;;;;20.98;19.38;;;21.10;99.90;;;;;;4994932;28;20027;-73
2023/06/26 03:56:26;;;;;;;21.10;19.08;;;20.90;99.90;;;;;;5017229;28;20048;-73
2023/06/26 03:58:52;;;;;;;16.95;15.65;;;20.90;99.90;;;;;;5030775;28;20411;-73
2023/06/26 04:01:19;;;;;;;17.00;15.32;;;20.90;99.90;;;;;;5029599;28;20038;-73
2023/06/26 04:03:45;;;;;;;16.95;14.63;;;20.80;99.90;;;;;;5030806;28;20505;-73
2023/06/26 04:06:11;;;;;;;17.40;15.65;;;20.70;99.90;;;;;;5015201;28;20034;-74
2023/06/26 04:08:38;;;;;;;20.20;17.63;;;20.50;99.90;;;;;;5030502;28;20550;-73
2023/06/26 04:11:04;;;;;;;16.27;14.88;;;20.50;99.90;;;;;;5015082;28;20034;-73
2023/06/26 04:13:30;;;;;;;15.48;13.88;;;20.40;99.90;;;;;;5030626;28;20033;-73
2023/06/26 04:15:56;;;;;;;14.05;12.63;;;20.50;99.90;;;;;;5014173;28;20506;-73
2023/06/26 04:18:22;;;;;;;16.45;11.52;;;20.40;99.90;;;;;;5015091;28;20038;-73
2023/06/26 04:21:08;;;;;;;13.60;11.05;;;20.20;99.90;;;;;;5012734;28;20049;-73
2023/06/26 04:23:35;;;;;;;14.63;10.40;;;20.30;99.90;;;;;;5029903;28;20037;-74
2023/06/26 04:26:02;;;;;;;12.00;10.70;;;20.10;99.90;;;;;;5029918;28;20049;-74
2023/06/26 04:28:28;;;;;;;11.93;10.27;;;20.00;99.90;;;;;;5030046;28;20486;-73
2023/06/26 04:30:54;;;;;;;12.55;10.40;;;19.90;99.90;;;;;;5029098;28;20033;-73
2023/06/26 04:33:20;;;;;;;16.50;10.20;;;19.90;99.90;;;;;;5014782;28;20045;-73
2023/06/26 04:35:48;;;;;;;13.52;9.52;;;19.90;99.90;;;;;;5007726;28;20026;-74
2023/06/26 04:38:15;;;;;;;12.80;9.60;;;20.10;99.90;;;;;;4976028;28;20027;-74
2023/06/26 04:40:41;;;;;;;13.60;8.55;;;20.00;99.90;;;;;;5011175;28;20041;-74
2023/06/26 04:43:07;;;;;;;14.35;9.70;;;20.00;99.90;;;;;;5014631;28;20037;-73
2023/06/26 04:45:33;;;;;;;16.10;9.77;;;19.90;99.90;;;;;;5013764;28;20030;-73
2023/06/26 04:48:02;;;;;;;14.90;8.75;;;20.10;99.90;;;;;;4986196;28;20066;-74
2023/06/26 04:50:28;;;;;;;14.05;7.90;;;20.10;99.90;;;;;;4980098;28;20055;-73
2023/06/26 04:52:55;;;;;;;9.43;8.52;;;20.10;99.90;;;;;;5013480;28;20056;-74
2023/06/26 04:55:23;;;;;;;14.48;8.98;;;20.20;99.90;;;;;;5014252;28;20030;-74
2023/06/26 04:57:50;;;;;;;12.60;9.38;;;20.20;99.90;;;;;;5012751;28;20482;-73
2023/06/26 05:00:16;;;;;;;12.27;8.77;;;20.20;99.90;;;;;;5012446;28;20037;-72
2023/06/26 05:02:42;;;;;;;16.13;9.45;;;20.20;99.90;;;;;;5013304;28;20034;-73
2023/06/26 05:05:08;;;;;;;15.15;9.32;;;20.30;99.90;;;;;;5013128;28;20029;-73
2023/06/26 05:07:34;;;;;;;11.77;9.68;;;20.50;99.90;;;;;;5012890;28;20041;-74
2023/06/26 05:10:01;;;;;;;13.73;10.15;;;20.70;99.90;;;;;;5014260;28;20021;-73
2023/06/26 05:12:27;;;;;;;12.48;9.80;;;20.90;99.90;;;;;;5013410;28;20053;-73
2023/06/26 05:14:53;;;;;;;11.38;10.20;;;21.00;99.90;;;;;;5012959;28;20026;-75
2023/06/26 05:17:19;;;;;;;16.88;12.52;;;21.00;99.90;;;;;;5013126;28;20041;-73
2023/06/26 05:19:45;;;;;;;17.65;15.63;;;21.30;99.90;;;;;;5013871;28;20041;-73
2023/06/26 05:22:12;;;;;;;18.27;16.65;;;21.60;99.90;;;;;;5013628;28;20041;-74
2023/06/26 05:24:39;;;;;;;17.65;16.05;;;21.70;99.90;;;;;;5013848;28;20021;-74
2023/06/26 05:27:05;;;;;;;18.95;17.30;;;21.80;99.90;;;;;;5028369;28;20033;-74
2023/06/26 05:29:32;;;;;;;17.05;13.75;;;21.70;99.90;;;;;;5029079;28;20033;-74
2023/06/26 05:31:59;;;;;;;18.75;16.98;;;21.60;99.90;;;;;;5027292;28;20041;-74
2023/06/26 05:34:28;;;;;;;20.02;18.05;;;21.50;99.90;;;;;;5028884;28;20053;-73
2023/06/26 05:36:57;;;;;;;20.40;17.98;;;21.60;99.90;;;;;;5015639;28;20049;-74
2023/06/26 05:39:24;;;;;;;24.10;22.00;;;21.60;99.90;;;;;;4992708;28;20038;-74
2023/06/26 05:41:50;;;;;;;25.58;23.48;;;21.40;99.90;;;;;;5006960;28;20045;-73
2023/06/26 05:44:17;;;;;;;25.05;23.15;;;21.50;99.90;;;;;;5028755;28;20022;-73
2023/06/26 05:46:43;;;;;;;17.55;15.85;;;21.70;99.90;;;;;;5028110;28;20045;-74
2023/06/26 05:49:09;;;;;;;24.20;22.20;;;21.80;99.90;;;;;;4996421;28;20038;-74
2023/06/26 05:51:36;;;;;;;20.33;18.50;;;21.90;99.90;;;;;;5005060;28;20044;-73
2023/06/26 05:54:02;;;;;;;19.50;17.48;;;22.00;99.90;;;;;;5028656;28;20033;-74
2023/06/26 05:56:29;;;;;;;20.67;18.75;;;22.00;99.90;;;;;;5012554;28;20029;-73
2023/06/26 05:58:55;;;;;;;21.98;20.02;;;22.00;99.90;;;;;;5011770;28;20049;-74
2023/06/26 06:01:21;;;;;;;24.55;22.40;;;22.20;99.90;;;;;;5027760;28;20034;-74
2023/06/26 06:03:47;;;;;;;32.88;29.95;;;22.30;99.90;;;;;;5013176;28;20022;-74
2023/06/26 06:06:13;;;;;;;28.55;26.35;;;22.40;99.90;;;;;;5028143;28;20383;-74
2023/06/26 06:08:39;;;;;;;29.65;27.25;;;22.50;99.90;;;;;;5013103;28;20034;-73
2023/06/26 06:11:05;;;;;;;23.08;20.98;;;22.60;99.90;;;;;;5012377;28;20029;-73
2023/06/26 06:13:32;;;;;;;24.00;22.20;;;22.60;99.90;;;;;;5013064;28;20052;-74
2023/06/26 06:15:58;;;;;;;26.42;24.50;;;22.60;99.90;;;;;;5012320;28;20034;-74
2023/06/26 06:18:24;;;;;;;26.58;24.23;;;22.70;99.90;;;;;;5028191;28;20041;-73
2023/06/26 06:20:50;;;;;;;29.55;27.35;;;22.60;99.90;;;;;;5012585;28;20391;-73
2023/06/26 06:23:16;;;;;;;26.15;23.85;;;22.70;99.90;;;;;;5028083;28;20045;-74
2023/06/26 06:25:42;;;;;;;28.27;26.15;;;22.70;99.90;;;;;;5012387;28;20030;-74
2023/06/26 06:28:08;;;;;;;28.70;26.38;;;22.50;99.90;;;;;;5012745;28;20037;-74
2023/06/26 06:30:34;;;;;;;26.63;24.25;;;22.50;99.90;;;;;;5012229;28;20042;-74
2023/06/26 06:33:01;;;;;;;31.13;28.70;;;22.60;99.90;;;;;;5012705;28;20040;-73
2023/06/26 06:35:27;;;;;;;30.38;27.75;;;22.50;99.90;;;;;;5010098;28;20038;-74
2023/06/26 06:37:53;;;;;;;29.05;26.85;;;22.60;99.90;;;;;;5008161;28;20035;-73
2023/06/26 06:40:21;;;;;;;32.30;29.73;;;22.60;99.90;;;;;;5010706;28;20045;-73
2023/06/26 06:42:47;;;;;;;27.67;25.45;;;22.60;99.90;;;;;;5012412;28;20041;-74
2023/06/26 06:45:13;;;;;;;30.77;28.10;;;22.60;99.90;;;;;;5011968;28;20081;-73
2023/06/26 06:47:40;;;;;;;31.63;29.25;;;22.60;99.90;;;;;;5007711;28;20038;-74
2023/06/26 06:50:09;;;;;;;32.15;29.70;;;22.60;99.90;;;;;;4993000;28;20526;-74
2023/06/26 06:52:40;;;;;;;26.08;23.90;;;22.80;99.90;;;;;;5027118;28;20053;-73
2023/06/26 06:55:08;;;;;;;;;;;22.90;99.90;;;;;;5027874;28;20030;-74
2023/06/26 06:57:37;;;;;;;17.17;15.57;;;22.90;99.90;;;;;;5012203;28;19936;-74
2023/06/26 07:00:04;;;;;;;18.20;16.33;;;23.00;99.90;;;;;;5012099;28;20022;-73
2023/06/26 07:02:31;;;;;;;19.40;17.45;;;23.10;99.90;;;;;;5027083;28;20388;-74
2023/06/26 07:04:57;;;;;;;33.33;30.80;;;22.90;99.90;;;;;;5012536;28;20033;-73
2023/06/26 07:07:23;;;;;;;18.75;16.33;;;23.10;99.90;;;;;;5012201;28;20026;-74
2023/06/26 07:09:49;;;;;;;18.88;16.75;;;23.20;99.40;;;;;;5011896;28;20026;-74
2023/06/26 07:12:15;;;;;;;19.60;17.58;;;23.10;99.30;;;;;;5011968;28;20042;-74
2023/06/26 07:14:41;;;;;;;21.42;19.27;;;23.10;99.20;;;;;;5012460;28;20026;-74
2023/06/26 07:17:08;;;;;;;19.05;17.05;;;23.10;99.10;;;;;;5011578;28;20044;-74
2023/06/26 07:19:34;;;;;;;19.55;17.75;;;23.10;99.20;;;;;;5012194;28;20391;-74
2023/06/26 07:22:00;;;;;;;20.70;18.77;;;23.30;99.40;;;;;;5012007;28;20041;-74
2023/06/26 07:24:26;;;;;;;18.50;16.63;;;23.20;98.80;;;;;;5011875;28;20403;-74
2023/06/26 07:26:52;;;;;;;20.63;18.83;;;23.30;99.10;;;;;;5011906;28;20029;-74
2023/06/26 07:29:18;;;;;;;22.08;17.73;;;23.50;98.70;;;;;;5027302;28;20470;-74
2023/06/26 07:31:45;;;;;;;19.63;17.92;;;23.60;98.20;;;;;;5006801;28;20042;-74
2023/06/26 07:34:11;;;;;;;20.17;18.33;;;23.60;98.10;;;;;;4992533;28;20039;-74
2023/06/26 07:36:37;;;;;;;21.02;19.23;;;23.70;98.20;;;;;;5007361;28;20391;-74
2023/06/26 07:39:03;;;;;;;19.17;17.58;;;23.70;98.00;;;;;;4997376;28;20032;-74
2023/06/26 07:41:31;;;;;;;18.27;16.40;;;23.50;98.00;;;;;;5001033;28;20339;-74
2023/06/26 07:43:58;;;;;;;18.88;17.15;;;23.30;98.40;;;;;;5007170;28;20053;-73
2023/06/26 07:46:24;;;;;;;19.38;17.73;;;23.30;99.00;;;;;;5018033;28;20038;-73
2023/06/26 07:48:50;;;;;;;17.25;15.52;;;23.60;98.70;;;;;;4997669;28;20396;-74
2023/06/26 07:51:16;;;;;;;21.33;19.05;;;23.50;98.70;;;;;;5001285;28;20486;-74
2023/06/26 07:53:42;;;;;;;18.23;16.58;;;23.40;98.10;;;;;;5011441;28;20053;-74
2023/06/26 07:56:08;;;;;;;17.02;15.45;;;23.60;98.80;;;;;;5014639;28;20153;-74
2023/06/26 07:58:35;;;;;;;20.38;18.75;;;23.80;98.80;;;;;;5015478;28;20041;-73
2023/06/26 08:01:01;;;;;;;18.35;16.75;;;23.90;97.60;;;;;;5030074;28;20395;-73
2023/06/26 08:03:27;;;;;;;23.20;21.45;;;24.10;97.90;;;;;;5030674;28;20034;-74
2023/06/26 08:05:53;;;;;;;22.50;20.83;;;24.30;95.30;;;;;;5015070;28;20030;-74
2023/06/26 08:08:19;;;;;;;19.45;17.65;;;24.00;95.30;;;;;;5013775;28;20038;-73
2023/06/26 08:10:45;;;;;;;21.80;20.17;;;24.20;97.00;;;;;;5030327;28;20049;-73
2023/06/26 08:13:11;;;;;;;23.10;20.88;;;24.30;96.40;;;;;;5015038;28;20472;-73
2023/06/26 08:15:37;;;;;;;23.25;21.35;;;24.30;96.10;;;;;;5029854;28;20045;-73
2023/06/26 08:18:03;;;;;;;24.13;22.13;;;24.30;95.80;;;;;;5015226;28;20414;-73
2023/06/26 08:20:29;;;;;;;26.58;24.63;;;24.50;95.50;;;;;;5014840;28;20357;-73
2023/06/26 08:22:55;;;;;;;22.50;20.48;;;24.50;95.10;;;;;;5014969;28;20018;-72
2023/06/26 08:25:22;;;;;;;26.27;24.52;;;24.80;96.90;;;;;;5014627;28;20069;-74
2023/06/26 08:27:48;;;;;;;24.35;22.48;;;24.90;94.70;;;;;;5030318;28;20026;-73
2023/06/26 08:30:14;;;;;;;29.45;27.45;;;25.00;96.10;;;;;;5014248;28;20033;-73
2023/06/26 08:32:40;;;;;;;28.33;25.98;;;24.90;94.50;;;;;;5014897;28;20052;-74
2023/06/26 08:35:06;;;;;;;30.13;27.63;;;24.90;94.90;;;;;;5014787;28;20033;-74
2023/06/26 08:37:32;;;;;;;28.08;25.92;;;24.90;94.80;;;;;;4996427;28;20045;-73
2023/06/26 08:40:00;;;;;;;33.65;30.85;;;24.90;95.20;;;;;;5013609;28;20037;-73
2023/06/26 08:42:26;;;;;;;35.35;32.85;;;25.10;95.20;;;;;;5014390;28;20029;-73
2023/06/26 08:44:52;;;;;;;33.42;31.13;;;25.10;94.30;;;;;;5014961;28;20388;-73
2023/06/26 08:47:18;;;;;;;37.22;34.58;;;25.30;94.70;;;;;;5027071;28;20042;-73
2023/06/26 08:49:53;;;;;;;33.90;31.50;;;25.60;93.90;;;;;;4993324;28;20061;-73
2023/06/26 08:52:30;;;;;;;36.35;34.20;;;25.60;92.60;;;;;;5010935;28;20386;-73
2023/06/26 08:54:58;;;;;;;33.90;31.67;;;25.80;93.20;;;;;;5013393;28;20069;-72
2023/06/26 08:57:25;;;;;;;32.88;30.70;;;26.00;93.30;;;;;;5029473;28;20026;-73
2023/06/26 08:59:51;;;;;;;34.80;32.63;;;26.00;92.10;;;;;;5029421;28;20497;-73
2023/06/26 09:02:17;;;;;;;34.67;32.17;;;26.20;92.40;;;;;;5028981;28;20042;-73
2023/06/26 09:04:43;;;;;;;32.30;30.40;;;26.20;92.10;;;;;;5029422;28;20022;-74
2023/06/26 09:07:10;;;;;;;38.15;35.78;;;26.40;91.50;;;;;;5013614;28;20105;-74
2023/06/26 09:09:36;;;;;;;58.13;54.75;;;26.40;89.90;;;;;;5029461;28;20030;-74
2023/06/26 09:12:03;;;;;;;39.28;36.72;;;26.00;86.80;;;;;;5029151;28;20057;-73
2023/06/26 09:14:29;;;;;;;35.65;33.22;;;25.60;90.20;;;;;;5014163;28;20042;-73
2023/06/26 09:16:55;;;;;;;38.30;35.63;;;25.50;90.60;;;;;;5028634;28;20038;-74
2023/06/26 09:19:21;;;;;;;39.95;37.45;;;25.60;90.80;;;;;;5013665;28;20034;-74
2023/06/26 09:21:49;;;;;;;45.00;42.22;;;25.60;89.80;;;;;;5013605;28;20386;-74
2023/06/26 09:24:15;;;;;;;38.35;35.88;;;25.70;89.40;;;;;;5029210;28;20025;-74
2023/06/26 09:26:42;;;;;;;34.40;32.15;;;25.80;90.40;;;;;;5028861;28;20026;-74
2023/06/26 09:29:09;;;;;;;43.67;40.90;;;26.10;91.70;;;;;;5028906;28;20458;-73
2023/06/26 09:31:37;;;;;;;42.60;40.15;;;26.10;90.50;;;;;;5028105;28;20057;-74
2023/06/26 09:34:03;;;;;;;41.88;39.13;;;26.20;90.70;;;;;;5013457;28;20030;-74
2023/06/26 09:36:32;;;;;;;36.63;34.13;;;26.20;90.70;;;;;;5009965;28;20026;-73
2023/06/26 09:39:04;;;;;;;37.88;35.63;;;26.40;91.40;;;;;;4982755;28;20358;-73
2023/06/26 09:41:30;;;;;;;37.03;34.63;;;26.60;90.40;;;;;;5011965;28;20389;-74
2023/06/26 09:43:58;;;;;;;40.92;38.40;;;26.80;90.40;;;;;;5013826;28;20049;-73
2023/06/26 09:46:28;;;;;;;51.13;48.13;;;26.90;90.40;;;;;;5027704;28;20497;-73
2023/06/26 09:49:07;;;;;;;51.67;48.85;;;26.90;85.00;;;;;;5013544;28;20051;-74
2023/06/26 09:51:34;;;;;;;47.65;44.30;;;26.60;83.90;;;;;;5003709;28;20026;-73
2023/06/26 09:54:00;;;;;;;41.22;38.63;;;26.50;86.00;;;;;;5028479;28;20052;-74
2023/06/26 09:56:27;;;;;;;42.80;40.22;;;26.50;88.60;;;;;;5028307;28;20397;-73
2023/06/26 09:58:56;;;;;;;45.58;42.72;;;26.20;85.90;;;;;;5028528;28;20022;-74
2023/06/26 10:01:22;;;;;;;44.83;42.20;;;25.90;88.80;;;;;;5012825;28;20034;-74
2023/06/26 10:03:48;;;;;;;38.83;36.53;;;26.00;88.90;;;;;;5012676;28;20509;-73
2023/06/26 10:06:14;;;;;;;44.88;42.28;;;26.40;90.30;;;;;;5011934;28;20042;-74
2023/06/26 10:08:40;;;;;;;47.88;44.95;;;26.60;85.40;;;;;;5013144;28;20470;-73
2023/06/26 10:11:08;;;;;;;44.88;42.30;;;26.50;83.40;;;;;;5028088;28;20033;-73
2023/06/26 10:13:38;;;;;;;41.83;39.53;;;26.60;87.20;;;;;;5028209;28;20108;-73
2023/06/26 10:16:04;;;;;;;43.92;41.08;;;27.00;86.70;;;;;;5027250;28;20038;-73
2023/06/26 10:18:31;;;;;;;39.65;37.30;;;27.20;86.30;;;;;;5027165;28;20387;-73
2023/06/26 10:20:57;;;;;;;45.40;42.80;;;27.40;86.80;;;;;;5027809;28;20387;-73
2023/06/26 10:23:23;;;;;;;52.65;49.47;;;27.40;85.40;;;;;;5028173;28;20037;-74
2023/06/26 10:25:51;;;;;;;46.10;43.35;;;27.10;82.50;;;;;;5027734;28;20034;-74
2023/06/26 10:28:17;;;;;;;45.78;43.25;;;26.90;83.80;;;;;;5012775;28;20032;-73
2023/06/26 10:30:43;;;;;;;47.10;44.40;;;26.80;86.80;;;;;;5027300;28;20042;-74
2023/06/26 10:33:09;;;;;;;47.53;44.78;;;26.80;84.30;;;;;;5027857;28;20592;-74
2023/06/26 10:35:47;;;;;;;46.70;44.20;;;26.90;86.60;;;;;;5023989;28;20037;-74
2023/06/26 10:38:13;;;;;;;50.83;47.85;;;27.10;83.00;;;;;;4956741;28;20046;-74
2023/06/26 10:40:46;;;;;;;48.70;45.80;;;27.20;83.80;;;;;;5009800;28;20030;-74
2023/06/26 10:43:13;;;;;;;56.83;53.45;;;27.30;83.60;;;;;;5027667;28;20038;-74
2023/06/26 10:45:52;;;;;;;50.30;47.45;;;27.10;79.90;;;;;;5011756;28;20026;-74
2023/06/26 10:48:19;;;;;;;57.03;53.83;;;26.80;81.00;;;;;;5007329;28;20057;-73
2023/06/26 10:50:48;;;;;;;59.53;56.40;;;26.80;79.40;;;;;;4996393;28;20048;-74
2023/06/26 10:53:20;;;;;;;58.58;55.40;;;26.80;78.90;;;;;;5027581;28;20034;-73
2023/06/26 10:56:03;;;;;;;55.20;52.38;;;26.90;77.80;;;;;;5026704;28;20034;-73
2023/06/26 10:58:41;;;;;;;60.03;56.63;;;26.70;79.20;;;;;;5027031;28;20022;-74
2023/06/26 11:01:26;;;;;;;50.17;47.30;;;26.70;78.80;;;;;;5011332;28;20038;-73
2023/06/26 11:04:04;;;;;;;44.60;42.00;;;26.90;81.30;;;;;;5012293;28;20037;-75
2023/06/26 11:06:31;;;;;;;48.30;45.40;;;27.10;80.60;;;;;;5010974;28;20059;-73
2023/06/26 11:09:04;;;;;;;49.92;47.20;;;27.10;79.90;;;;;;5027627;28;20038;-74
2023/06/26 11:12:09;;;;;;;67.82;64.18;;;27.30;79.80;;;;;;5026866;28;20379;-73
2023/06/26 11:14:35;;;;;;;81.13;76.85;;;27.00;77.00;;;;;;5029831;28;20049;-73
2023/06/26 11:17:05;;;;;;;41.05;38.65;;;26.80;75.60;;;;;;5028565;28;20037;-73
2023/06/26 11:19:31;;;;;;;43.00;40.58;;;26.90;80.80;;;;;;4996350;28;20033;-73
2023/06/26 11:22:02;;;;;;;42.25;39.83;;;27.20;81.00;;;;;;5028640;28;20496;-73
2023/06/26 11:24:28;;;;;;;45.47;42.92;;;27.60;81.20;;;;;;5029871;28;20622;-74
2023/06/26 11:26:54;;;;;;;56.92;53.60;;;27.90;81.20;;;;;;5012939;28;20041;-74
2023/06/26 11:29:21;;;;;;;59.10;55.90;;;28.00;78.90;;;;;;5014490;28;20029;-74
2023/06/26 11:31:47;;;;;;;62.65;59.28;;;27.90;77.70;;;;;;5032764;28;20053;-73
2023/06/26 11:34:13;;;;;;;55.58;52.58;;;27.50;76.70;;;;;;5033734;28;20049;-74
2023/06/26 11:36:42;;;;;;;60.25;57.03;;;27.30;77.30;;;;;;5006271;28;20030;-74
2023/06/26 11:39:08;;;;;;;52.05;49.17;;;27.40;77.90;;;;;;5018797;28;20037;-73
2023/06/26 11:41:35;;;;;;;47.95;45.30;;;27.30;78.50;;;;;;5016615;28;20037;-74
2023/06/26 11:44:02;;;;;;;43.50;41.05;;;27.70;79.30;;;;;;5000527;28;20049;-74
2023/06/26 11:46:28;;;;;;;70.03;66.43;;;28.00;79.20;;;;;;5013956;28;20498;-74
2023/06/26 11:48:54;;;;;;;48.30;45.47;;;28.20;76.00;;;;;;5016088;28;20038;-74
2023/06/26 11:51:20;;;;;;;55.38;52.28;;;27.90;79.00;;;;;;5003949;28;20037;-74
2023/06/26 11:53:47;;;;;;;59.58;56.33;;;27.90;77.80;;;;;;5030940;28;20037;-73
2023/06/26 11:56:14;;;;;;;67.90;63.90;;;28.10;77.30;;;;;;5030519;28;20026;-74
2023/06/26 11:58:57;;;;;;;55.72;52.50;;;27.90;76.00;;;;;;5030481;28;20380;-73
2023/06/26 12:01:23;;;;;;;50.55;47.53;;;27.40;77.00;;;;;;5014764;28;20034;-74
2023/06/26 12:03:50;;;;;;;50.78;47.83;;;27.00;77.80;;;;;;5015529;28;20026;-74
2023/06/26 12:06:16;;;;;;;47.10;44.08;;;26.90;78.10;;;;;;5030679;28;20030;-72
2023/06/26 12:08:42;;;;;;;48.40;45.58;;;27.00;78.60;;;;;;5030671;28;20037;-73
2023/06/26 12:11:09;;;;;;;54.95;51.72;;;27.10;79.30;;;;;;5030160;28;20034;-74
2023/06/26 12:13:35;;;;;;;55.40;52.15;;;27.20;77.60;;;;;;5030158;28;20025;-73
2023/06/26 12:16:01;;;;;;;42.08;39.40;;;27.50;77.70;;;;;;5014476;28;20038;-74
2023/06/26 12:18:34;;;;;;;55.10;52.03;;;27.90;80.60;;;;;;5030520;28;20033;-74
2023/06/26 12:21:00;;;;;;;43.13;40.42;;;28.20;77.00;;;;;;5014976;28;20036;-73
2023/06/26 12:23:36;;;;;;;52.88;49.97;;;28.40;78.70;;;;;;5030539;28;20030;-73
2023/06/26 12:26:18;;;;;;;55.92;52.85;;;28.80;77.90;;;;;;5029687;28;20034;-74
2023/06/26 12:28:45;;;;;;;50.15;47.22;;;29.00;77.70;;;;;;5014742;28;20371;-74